• Join FlightAware (Why Join?)
  • Login
  • US Flag 
12:15PM EDT


 

Airport Tracker/Info


-or-


 

Live Flight TrackerFlight Track Log ✈ UAL3776 ✈ 06-May-2013 ✈ KCLT - KORD

Flight Track Log - Related Links

Times and Time Zones

All times are in EDT time to prevent confusion due to time zone crossing. See the UAL3776 flight status page for this flight to view local times or setup timezone preferences in your user account.

Time Position Orientation Groundspeed Altitude Reporting Facility
EDT Latitude Longitude Course Direction KTS MPH feet Rate Location/Type
12:14PM 35.1933 -80.9533 52° Northeast 151 174 1,700  Level Atlanta Center
12:16PM 35.1061 -80.9694 189° South 237 273 5,100 2,340 Climbing Atlanta Center
12:17PM 35.0914 -81.0511 258° West 270 311 7,900 2,460 Climbing Atlanta Center
12:18PM 35.2447 -81.2167 North  Level FlightAware Approximate
12:18PM 35.1042 -81.1444 280° West 305 351 10,200  Level Atlanta Center
12:19PM 35.3154 -81.1163 52° Northeast  Level FlightAware Approximate
12:19PM 35.1242 -81.1972 295° West 328 377 10,900  Level Atlanta Center
12:20PM 35.3881 -81.0020 52° Northeast  Level FlightAware Approximate
12:21PM 35.2875 -81.1601 52° Northeast  Level FlightAware Approximate
12:22PM 35.3653 -81.0692 North 320 368 16,600  Level Atlanta Center
12:23PM 35.4400 -80.9672 48° Northeast 372 428 18,000 1,620 Climbing Atlanta Center
12:24PM 35.5581 -80.9344 13° North 394 453 19,900 1,740 Climbing Atlanta Center
12:25PM 35.6742 -80.9889 339° North 400 460 21,500 1,440 Climbing Atlanta Center
12:27PM 35.8950 -81.1575 328° Northwest 458 527 24,300 1,320 Climbing Atlanta Center
12:28PM 36.0171 -80.8333 North  Level FlightAware Approximate
12:28PM 36.0097 -81.2408 330° Northwest 466 536 25,500  Level Atlanta Center
12:29PM 36.1125 -81.3556 318° Northwest 476 548 26,600 720 Climbing Atlanta Center
12:30PM 36.2128 -81.4706 317° Northwest 488 562 27,000 180 Climbing Atlanta Center
12:31PM 36.3172 -81.5831 319° Northwest 499 574 27,000 360 Level Atlanta Center
12:32PM 36.4197 -81.7011 317° Northwest 504 580 27,800 960 Climbing Atlanta Center
12:33PM 36.5219 -81.8172 318° Northwest 499 574 29,000 780 Climbing Atlanta Center
12:35PM 36.7219 -82.0444 318° Northwest 505 581 30,300 900 Climbing Atlanta Center
12:37PM 36.9697 -82.3222 318° Northwest 521 600 32,900 1,080 Climbing Indianapolis Center
12:38PM 37.0739 -82.4408 318° Northwest 513 590 33,900 900 Climbing Indianapolis Center
12:39PM 37.1761 -82.5592 317° Northwest 506 582 34,800 660 Climbing Indianapolis Center
12:41PM 37.3063 -82.7055 318° Northwest  Level FlightAware Approximate
12:41PM 37.3931 -82.8111 318° Northwest 493 567 36,000  Level Indianapolis Center
12:43PM 37.5199 -82.9515 319° Northwest  Level FlightAware Approximate
12:44PM 37.6964 -83.1658 316° Northwest 501 577 36,000  Level Indianapolis Center
12:45PM 37.7983 -83.2872 317° Northwest 502 578 36,000  Level Indianapolis Center
12:47PM 37.9307 -83.4022 326° Northwest  Level FlightAware Approximate
12:47PM 38.0350 -83.5253 326° Northwest 504 580 36,000  Level Indianapolis Center
12:48PM 38.1519 -83.6211 327° Northwest 499 574 36,000  Level Indianapolis Center
12:49PM 38.2664 -83.7183 326° Northwest 494 568 36,000 -60 Level Indianapolis Center
12:50PM 38.1081 -83.6494 316° Northwest  Level FlightAware Approximate
12:51PM 38.3895 -83.8192 327° Northwest  Level FlightAware Approximate
12:55PM 38.9689 -84.3206 326° Northwest 493 567 35,900  Level Indianapolis Center
12:56PM 39.0836 -84.4208 326° Northwest 494 568 35,200 -780 Descending Indianapolis Center
12:57PM 39.1967 -84.5189 326° Northwest 485 558 34,400 -720 Descending Indianapolis Center
12:58PM 39.0751 -84.3955 326° Northwest  Level FlightAware Approximate
12:59PM 39.1721 -84.4802 326° Northwest  Level FlightAware Approximate
01:00PM 39.2690 -84.5651 326° Northwest  Level FlightAware Approximate
01:00PM 39.4161 -84.7117 326° Northwest 473 544 33,000  Level Indianapolis Center
01:01PM 39.3667 -84.6510 326° Northwest  Level FlightAware Approximate
01:02PM 39.6692 -84.9347 326° Northwest 472 543 28,100  Level Chicago Center
01:03PM 39.7761 -85.0308 325° Northwest 470 541 28,000 -60 Descending Chicago Center
01:04PM 39.8644 -85.1081 326° Northwest 472 543 28,000  Level Indianapolis Center
01:05PM 39.9939 -85.2261 325° Northwest 477 549 28,000  Level Indianapolis Center
01:06PM 40.1003 -85.3200 326° Northwest 468 539 28,000 -60 Level Indianapolis Center
01:07PM 40.2258 -85.4339 325° Northwest 467 537 27,900 -360 Descending Chicago Center
01:08PM 40.3336 -85.5289 326° Northwest 471 542 27,200 -720 Descending Chicago Center
01:10PM 40.5256 -85.6906 327° Northwest 456 525 26,000 -780 Descending Indianapolis Center
01:11PM 40.6228 -85.8403 311° West 458 527 25,100 -900 Descending Indianapolis Center
01:11PM 40.6364 -85.8642 307° West 457 526 24,900 -720 Descending Chicago Center
01:12PM 40.7181 -86.0128 306° West 453 521 24,200 -660 Descending Chicago Center
01:14PM 40.8636 -86.2764 306° West 442 509 23,000 -420 Descending Chicago Center
01:15PM 40.9361 -86.4050 307° West 436 502 23,000  Level Chicago Center
01:16PM 41.0064 -86.5339 306° West 431 496 23,000 -480 Level Chicago Center
01:17PM 41.0786 -86.6644 306° West 437 503 22,100 -1,740 Descending Chicago Center
01:18PM 41.1569 -86.8083 306° West 414 476 19,500 -2,460 Descending Chicago Center
01:19PM 41.2231 -86.9278 306° West 403 464 17,000 -2,520 Descending Chicago Center
01:21PM 41.3050 -87.0632 297° West  Level FlightAware Approximate
01:21PM 41.3431 -87.1544 297° West 376 433 11,800  Level Chicago Center
01:22PM 41.4000 -87.2333 314° West 361 415 11,000 -540 Descending Chicago TRACON
01:23PM 41.4667 -87.3167 317° Northwest 362 417 11,000  Level Chicago TRACON
01:24PM 41.5500 -87.4167 318° Northwest 362 417 11,000 -360 Level Chicago TRACON
01:26PM 41.6494 -87.5203 322° Northwest 334 384 10,100 -720 Descending Chicago Center
01:27PM 41.7172 -87.5967 320° Northwest 271 312 9,300 -900 Descending Chicago Center
01:27PM 41.7500 -87.6333 320° Northwest 256 295 8,800 -600 Descending Chicago TRACON
01:30PM 41.9011 -87.8177 323° Northwest  Level FlightAware Approximate
01:33PM 41.7922 -87.9792 312° West 197 227 5,900  Level Chicago Center
01:34PM 41.7517 -88.0244 220° Southwest 193 222 5,000 -480 Descending Chicago Center
01:35PM 41.7303 -88.0814 243° Southwest 201 231 5,000 -60 Level Chicago Center
01:36PM 41.7672 -88.1233 320° Northwest 200 230 4,900 -360 Descending Chicago Center
01:37PM 41.9667 -87.9000 312° West  Level FlightAware Approximate
01:37PM 41.8081 -88.0725 43° Northeast 177 204 4,300  Level Chicago Center
01:38PM 41.9817 -87.9067 312° West  Level Estimated
01:38PM 41.8422 -88.0317 42° Northeast 169 194 4,000  Level Chicago Center
01:40PM 41.9167 -87.9500 39° Northeast 149 171 1,800 -1,020 Descending Chicago TRACON
01:41PM 41.9333 -87.9167 56° Northeast 119 137 1,100 -780 Descending Chicago TRACON
01:43PM 41.9667 -87.9000 312° West  Level FlightAware Approximate
01:50PM 41.9817 -87.9067 312° West  Level Estimated
01:51PM 41.9817 -87.9067 312° West  Level Estimated
01:52PM 41.9817 -87.9067 312° West  Level Estimated
01:53PM 41.9817 -87.9067 312° West  Level Estimated